Time;durP1;ratioP1;P1;durP2;ratioP2;P2;SDS_P1;SDS_P2;PMS_P1;PMS_P2;Temp;Humidity;BMP_temperature;BMP_pressure;BME280_temperature;BME280_humidity;BME280_pressure;Samples;Min_cycle;Max_cycle;Signal;HPM_P1;HPM_P2
2023/01/17 05:31:01;;;;;;;;;11.25;11.25;;;;;6.18;69.12;98184.94;4996722;28;45793;-80
2023/01/17 05:33:27;;;;;;;;;13.50;12.00;;;;;6.05;69.51;98168.09;5011782;28;45510;-79
2023/01/17 05:35:53;;;;;;;;;13.00;13.00;;;;;6.22;69.33;98197.03;5016238;28;45595;-79
2023/01/17 05:38:18;;;;;;;;;14.25;14.00;;;;;6.20;69.54;98183.03;5015760;28;45301;-80
2023/01/17 05:40:43;;;;;;;;;10.75;10.75;;;;;6.22;69.26;98183.75;5016071;28;46238;-80
2023/01/17 05:43:09;;;;;;;;;19.25;14.75;;;;;6.08;69.34;98155.44;5015488;28;45351;-80
2023/01/17 05:45:34;;;;;;;;;19.75;14.25;;;;;5.95;69.45;98145.78;5005201;28;45620;-79
2023/01/17 05:48:01;;;;;;;;;15.00;13.75;;;;;6.20;69.71;98180.34;5015789;28;45542;-80
2023/01/17 05:50:32;;;;;;;;;14.00;11.75;;;;;6.21;69.67;98182.03;5009007;28;47707;-81
2023/01/17 05:53:07;;;;;;;;;10.50;10.00;;;;;6.23;70.00;98177.47;5016879;28;45356;-81
2023/01/17 05:55:34;;;;;;;;;7.25;7.00;;;;;6.24;70.34;98184.50;5016125;28;45475;-80
2023/01/17 05:57:59;;;;;;;;;14.25;10.25;;;;;6.24;69.76;98181.84;5015905;28;45574;-81
2023/01/17 06:00:25;;;;;;;;;10.75;10.75;;;;;6.25;69.70;98172.03;5015581;28;46073;-79
2023/01/17 06:02:55;;;;;;;;;12.50;10.25;;;;;6.32;69.31;98170.66;5015303;28;45332;-80
2023/01/17 06:05:21;;;;;;;;;15.75;13.25;;;;;6.37;69.34;98173.88;5015137;28;45364;-80
2023/01/17 06:07:48;;;;;;;;;13.25;10.00;;;;;6.23;69.41;98147.34;5015168;28;45505;-80
2023/01/17 06:10:15;;;;;;;;;10.75;9.50;;;;;6.26;69.43;98141.81;5015604;28;45541;-80
2023/01/17 06:12:42;;;;;;;;;16.50;14.50;;;;;6.25;69.31;98143.63;5017690;28;45480;-81
2023/01/17 06:15:08;;;;;;;;;13.00;12.50;;;;;6.47;69.58;98170.44;5016243;28;45584;-77
2023/01/17 06:17:34;;;;;;;;;13.25;12.75;;;;;6.51;69.34;98171.09;5006114;28;45638;-78
2023/01/17 06:19:59;;;;;;;;;15.75;15.75;;;;;6.54;69.29;98170.88;5013509;28;46075;-77
2023/01/17 06:22:25;;;;;;;;;14.50;13.00;;;;;6.51;69.05;98168.41;5014743;28;45442;-82
2023/01/17 06:24:50;;;;;;;;;16.50;14.00;;;;;6.60;69.23;98167.78;5015303;28;45456;-78
2023/01/17 06:27:16;;;;;;;;;15.25;10.75;;;;;6.64;68.72;98163.06;5014488;28;45512;-75
2023/01/17 06:29:41;;;;;;;;;13.25;13.25;;;;;6.69;68.92;98167.13;5015115;28;46273;-77
2023/01/17 06:32:06;;;;;;;;;17.75;14.25;;;;;6.66;69.17;98164.66;5015244;28;45352;-77
2023/01/17 06:34:32;;;;;;;;;18.00;14.50;;;;;6.66;69.17;98164.66;5008915;28;45471;-75
2023/01/17 06:36:57;;;;;;;;;16.50;14.50;;;;;6.56;69.03;98157.44;5012857;28;46360;-76
2023/01/17 06:39:23;;;;;;;;;12.50;11.00;;;;;6.65;68.85;98173.59;5014230;28;45500;-76
2023/01/17 06:41:48;;;;;;;;;19.00;15.75;;;;;6.52;69.29;98156.81;4996181;28;45423;-76
2023/01/17 06:44:14;;;;;;;;;18.00;18.00;;;;;6.53;69.12;98158.53;5006175;28;45409;-76
2023/01/17 06:46:39;;;;;;;;;15.00;15.00;;;;;6.59;69.22;98167.88;5010818;28;45542;-76
2023/01/17 06:49:05;;;;;;;;;19.50;15.25;;;;;6.51;69.26;98148.94;5014805;28;45227;-78
2023/01/17 06:51:30;;;;;;;;;16.00;15.25;;;;;6.58;69.45;98161.69;5014653;28;45349;-78
2023/01/17 06:53:56;;;;;;;;;14.25;14.25;;;;;6.52;69.74;98159.47;5017886;28;45324;-77
2023/01/17 06:56:21;;;;;;;;;15.75;14.00;;;;;6.64;69.68;98163.06;4997386;28;46167;-75
2023/01/17 06:58:51;;;;;;;;;17.75;15.75;;;;;6.57;69.76;98151.16;5014207;28;46000;-74
2023/01/17 07:01:17;;;;;;;;;19.50;16.50;;;;;6.52;69.94;98140.00;5014443;28;45352;-74
2023/01/17 07:03:43;;;;;;;;;24.75;20.00;;;;;6.58;70.03;98144.88;5014150;28;45290;-76
2023/01/17 07:06:08;;;;;;;;;15.00;15.00;;;;;6.62;69.42;98139.25;4991776;28;46112;-79
2023/01/17 07:08:35;;;;;;;;;18.00;17.00;;;;;6.68;69.35;98153.91;5014166;28;45340;-84
2023/01/17 07:11:02;;;;;;;;;23.50;18.50;;;;;6.74;69.30;98161.47;4996321;28;45395;-76
2023/01/17 07:13:29;;;;;;;;;21.50;19.25;;;;;6.74;69.53;98156.13;4996243;28;45556;-76
2023/01/17 07:15:55;;;;;;;;;20.00;16.50;;;;;6.83;69.77;98169.63;5012480;28;45605;-73
2023/01/17 07:18:24;;;;;;;;;14.50;14.25;;;;;6.82;69.20;98170.59;5013505;28;46236;-76
2023/01/17 07:20:51;;;;;;;;;20.75;18.00;;;;;6.69;69.19;98140.50;4995923;28;45650;-77
2023/01/17 07:23:18;;;;;;;;;18.75;16.50;;;;;6.84;69.28;98168.69;5014033;28;45363;-76
2023/01/17 07:25:49;;;;;;;;;22.75;17.25;;;;;6.83;69.35;98174.97;5013643;28;46511;-76
2023/01/17 07:28:14;;;;;;;;;20.75;18.75;;;;;6.78;68.71;98165.63;5013505;28;45395;-76
2023/01/17 07:30:40;;;;;;;;;21.25;15.50;;;;;6.74;69.12;98164.13;5013337;28;45265;-75
2023/01/17 07:33:05;;;;;;;;;23.00;22.50;;;;;6.84;69.07;98155.38;5014034;28;45315;-75
2023/01/17 07:35:31;;;;;;;;;18.25;18.25;;;;;6.87;68.86;98148.97;5013529;28;45270;-75
2023/01/17 07:37:56;;;;;;;;;20.00;17.50;;;;;6.90;68.82;98150.53;5014485;28;45408;-75
2023/01/17 07:40:22;;;;;;;;;20.25;18.75;;;;;6.89;68.78;98149.69;5017031;28;45175;-75
2023/01/17 07:42:47;;;;;;;;;15.50;15.50;;;;;6.88;68.95;98145.34;5017364;28;45544;-75
2023/01/17 07:45:15;;;;;;;;;18.00;18.00;;;;;6.94;68.78;98158.22;5016710;28;45389;-73
2023/01/17 07:47:41;;;;;;;;;22.25;17.25;;;;;6.92;68.61;98143.31;5016838;28;45336;-74
2023/01/17 07:50:07;;;;;;;;;29.50;19.50;;;;;6.91;68.71;98147.78;5016881;28;45296;-76
2023/01/17 07:52:33;;;;;;;;;19.75;17.50;;;;;6.94;68.74;98155.56;5017159;28;45313;-75
2023/01/17 07:54:58;;;;;;;;;17.75;15.75;;;;;6.96;68.45;98150.13;5016919;28;45412;-74
2023/01/17 07:57:24;;;;;;;;;19.25;16.00;;;;;6.99;68.50;98153.41;5016953;28;45395;-75
2023/01/17 07:59:52;;;;;;;;;19.50;17.50;;;;;7.01;68.77;98158.63;5016559;28;45297;-76
2023/01/17 08:02:21;;;;;;;;;25.25;20.00;;;;;7.01;68.39;98164.81;4995681;28;45465;-73
2023/01/17 08:04:47;;;;;;;;;21.50;19.25;;;;;6.99;68.21;98168.53;5015836;28;47227;-73
2023/01/17 08:07:13;;;;;;;;;14.75;10.00;;;;;6.98;68.57;98169.50;5016657;28;45996;-75
2023/01/17 08:09:40;;;;;;;;;23.00;17.25;;;;;6.97;68.16;98171.34;4998563;28;45341;-74
2023/01/17 08:12:05;;;;;;;;;13.25;11.00;;;;;6.95;68.51;98175.06;5016629;28;45444;-75
2023/01/17 08:14:31;;;;;;;;;13.50;12.75;;;;;6.86;68.60;98165.91;5016545;28;45573;-75
2023/01/17 08:17:09;;;;;;;;;16.00;12.50;;;;;6.89;68.55;98165.69;5016487;28;45326;-74
2023/01/17 08:19:34;;;;;;;;;17.50;14.75;;;;;6.87;69.11;98161.44;5016598;28;45325;-76
2023/01/17 08:22:00;;;;;;;;;14.50;14.25;;;;;6.89;68.66;98160.34;5016459;28;45400;-77
2023/01/17 08:24:25;;;;;;;;;14.25;10.25;;;;;6.87;68.97;98167.63;5016539;28;45314;-75
2023/01/17 08:26:53;;;;;;;;;11.25;10.00;;;;;6.75;68.73;98147.19;5016257;28;45474;-76
2023/01/17 08:29:19;;;;;;;;;11.00;11.00;;;;;6.77;69.28;98153.25;5016175;28;45363;-75
2023/01/17 08:31:44;;;;;;;;;14.00;14.00;;;;;6.86;69.03;98175.72;5014868;28;45411;-77
2023/01/17 08:34:10;;;;;;;;;14.75;11.00;;;;;6.83;69.26;98177.63;5016130;28;45340;-76
2023/01/17 08:36:35;;;;;;;;;13.25;13.25;;;;;6.81;69.20;98168.88;5014662;28;47640;-75
2023/01/17 08:39:01;;;;;;;;;12.25;11.25;;;;;6.77;69.11;98163.91;5016427;28;45445;-74
2023/01/17 08:41:26;;;;;;;;;13.75;13.75;;;;;6.86;69.03;98167.72;5016361;28;45318;-76
2023/01/17 08:43:52;;;;;;;;;13.25;13.25;;;;;6.87;69.11;98169.44;5015960;28;45258;-75
2023/01/17 08:46:18;;;;;;;;;14.50;10.00;;;;;6.89;68.52;98168.34;4997977;28;46372;-75
2023/01/17 08:48:46;;;;;;;;;12.50;12.50;;;;;6.91;68.73;98168.22;5016210;28;45167;-75
2023/01/17 08:51:11;;;;;;;;;15.25;14.00;;;;;6.94;68.62;98163.56;4998397;28;45340;-75
2023/01/17 08:53:37;;;;;;;;;14.75;14.75;;;;;6.96;68.56;98166.09;5016171;28;45397;-75
2023/01/17 08:56:04;;;;;;;;;12.25;11.75;;;;;6.96;68.74;98156.31;5015948;28;46181;-75
2023/01/17 08:58:31;;;;;;;;;9.75;6.75;;;;;7.02;68.36;98161.19;5015966;28;45594;-75
2023/01/17 09:01:01;;;;;;;;;11.75;11.75;;;;;7.02;67.70;98152.34;5015588;28;45482;-75
2023/01/17 09:03:27;;;;;;;;;18.50;16.00;;;;;7.02;67.56;98157.66;5016029;28;45480;-74
2023/01/17 09:06:19;;;;;;;;;15.50;13.25;;;;;7.07;68.09;98156.34;5015720;28;46125;-74
2023/01/17 09:08:45;;;;;;;;;15.00;11.00;;;;;7.12;67.75;98158.69;5012891;28;45410;-76
2023/01/17 09:11:13;;;;;;;;;16.75;11.00;;;;;7.11;68.03;98163.19;5015727;28;45482;-75
2023/01/17 09:13:39;;;;;;;;;16.00;12.00;;;;;7.09;67.80;98154.44;4997626;28;46279;-75
2023/01/17 09:16:06;;;;;;;;;16.50;13.75;;;;;7.17;67.80;98159.19;5015532;28;45335;-76
2023/01/17 09:18:32;;;;;;;;;10.25;7.00;;;;;7.21;67.15;98161.56;5014458;28;45396;-73
2023/01/17 09:20:58;;;;;;;;;10.75;10.75;;;;;7.21;67.27;98156.22;5015435;28;45306;-75
2023/01/17 09:23:28;;;;;;;;;13.00;11.50;;;;;7.23;67.42;98153.41;5015644;28;45311;-76
2023/01/17 09:25:58;;;;;;;;;15.00;12.25;;;;;7.24;66.64;98149.78;5015018;28;45452;-73
2023/01/17 09:28:25;;;;;;;;;12.75;11.00;;;;;7.35;67.07;98167.66;5015315;28;45243;-76
2023/01/17 09:30:52;;;;;;;;;12.25;10.75;;;;;7.34;66.66;98160.63;5015368;28;45387;-76
2023/01/17 09:33:17;;;;;;;;;11.25;10.50;;;;;7.36;66.89;98164.88;5015207;28;45595;-74
2023/01/17 09:35:46;;;;;;;;;14.75;11.00;;;;;7.37;66.62;98166.59;5015245;28;46290;-74
2023/01/17 09:38:12;;;;;;;;;13.50;11.00;;;;;7.36;66.43;98167.56;5015116;28;45228;-76
2023/01/17 09:40:44;;;;;;;;;6.00;4.75;;;;;7.39;66.21;98169.16;5015552;28;45309;-74
2023/01/17 09:43:30;;;;;;;;;10.75;10.75;;;;;7.41;66.53;98169.88;5014946;28;45273;-76
2023/01/17 09:45:55;;;;;;;;;13.00;11.00;;;;;7.43;66.51;98163.47;5006179;28;45476;-75
2023/01/17 09:48:33;;;;;;;;;7.50;7.50;;;;;7.48;66.29;98169.31;4997262;28;45266;-76
2023/01/17 09:51:07;;;;;;;;;7.75;7.75;;;;;7.47;66.64;98161.44;5015130;28;45234;-75
2023/01/17 09:53:36;;;;;;;;;10.25;8.00;;;;;7.53;66.17;98168.97;5015032;28;45333;-74
2023/01/17 09:56:13;;;;;;;;;10.00;10.00;;;;;7.53;65.98;98172.50;4996906;28;47291;-76
2023/01/17 09:59:01;;;;;;;;;10.25;10.25;;;;;7.55;66.07;98173.22;5015196;28;45383;-77
2023/01/17 10:01:39;;;;;;;;;11.00;11.00;;;;;7.59;65.93;98187.16;5014007;28;45507;-75
2023/01/17 10:04:32;;;;;;;;;15.50;15.25;;;;;7.60;65.62;98181.72;5014720;28;45305;-74
2023/01/17 10:07:21;;;;;;;;;16.25;13.50;;;;;7.62;65.71;98186.09;5014727;28;45377;-76
2023/01/17 10:09:55;;;;;;;;;12.00;11.25;;;;;7.46;65.77;98165.06;5015026;28;45352;-74
2023/01/17 10:12:20;;;;;;;;;16.75;14.75;;;;;7.67;65.78;98200.78;5014889;28;45388;-74
2023/01/17 10:14:54;;;;;;;;;20.50;13.00;;;;;7.68;65.88;98194.47;5014859;28;45353;-75
2023/01/17 10:17:25;;;;;;;;;12.00;12.00;;;;;7.71;65.81;98198.75;5014761;28;45245;-75
2023/01/17 10:20:32;;;;;;;;;16.75;14.75;;;;;7.72;65.69;98201.31;5014635;28;45470;-74
2023/01/17 10:23:25;;;;;;;;;15.75;13.25;;;;;7.77;65.83;98201.78;5013479;28;45390;-76
2023/01/17 10:25:53;;;;;;;;;18.50;12.25;;;;;7.75;65.32;98189.53;5014405;28;45770;-74
2023/01/17 10:28:31;;;;;;;;;18.75;13.50;;;;;7.78;65.59;98191.97;5014140;28;46625;-74
2023/01/17 10:31:07;;;;;;;;;15.25;15.25;;;;;7.79;65.74;98202.53;5014620;28;45320;-75
2023/01/17 10:33:51;;;;;;;;;19.25;15.50;;;;;7.73;65.89;98179.00;5013271;28;45434;-76
2023/01/17 10:36:30;;;;;;;;;15.25;13.50;;;;;7.84;65.93;98186.19;5014078;28;45422;-75
2023/01/17 10:39:12;;;;;;;;;16.75;15.50;;;;;7.85;65.36;98190.56;5014536;28;46152;-75
2023/01/17 10:41:45;;;;;;;;;17.75;14.50;;;;;7.86;65.88;98189.59;5014347;28;45545;-76
2023/01/17 10:44:28;;;;;;;;;17.25;13.00;;;;;7.89;65.33;98186.69;5014257;28;45399;-75
2023/01/17 10:47:08;;;;;;;;;16.50;16.00;;;;;7.90;65.10;98194.59;5014127;28;45338;-76
2023/01/17 10:49:38;;;;;;;;;17.25;13.50;;;;;7.87;65.49;98184.13;5014332;28;45465;-74
2023/01/17 10:52:28;;;;;;;;;13.00;13.00;;;;;7.94;65.70;98193.38;5014423;28;45340;-75
2023/01/17 10:55:18;;;;;;;;;11.50;10.00;;;;;7.92;65.11;98189.13;5014468;28;45467;-75
2023/01/17 10:57:47;;;;;;;;;13.25;13.25;;;;;7.93;64.74;98190.81;5014064;28;45258;-77
2023/01/17 11:00:16;;;;;;;;;14.00;14.00;;;;;7.93;64.88;98183.66;5013895;28;45493;-76
2023/01/17 11:02:48;;;;;;;;;15.00;13.25;;;;;7.94;65.12;98180.03;5013990;28;45316;-77
2023/01/17 11:05:23;;;;;;;;;17.50;14.00;;;;;7.94;65.29;98185.38;5014338;28;45351;-75
2023/01/17 11:07:59;;;;;;;;;18.00;15.00;;;;;7.94;65.16;98177.38;5013774;28;45341;-76
2023/01/17 11:10:36;;;;;;;;;14.75;12.00;;;;;7.90;65.48;98165.25;5014031;28;45376;-76
2023/01/17 11:13:06;;;;;;;;;20.00;13.25;;;;;7.96;65.52;98169.25;5016516;28;45288;-74
2023/01/17 11:15:38;;;;;;;;;14.75;13.75;;;;;8.00;65.40;98165.38;5017650;28;45360;-77
2023/01/17 11:18:13;;;;;;;;;13.75;11.75;;;;;8.03;65.12;98162.47;5017776;28;45623;-74
2023/01/17 11:20:39;;;;;;;;;12.25;12.25;;;;;7.96;64.87;98143.44;5017463;28;45652;-75
2023/01/17 11:23:19;;;;;;;;;15.25;12.75;;;;;8.06;64.34;98166.75;5016287;28;45379;-74
2023/01/17 11:26:01;;;;;;;;;14.00;11.75;;;;;8.07;64.87;98165.78;5017527;28;45470;-74
2023/01/17 11:28:33;;;;;;;;;14.50;11.75;;;;;8.01;64.71;98148.41;5017191;28;45635;-74
2023/01/17 11:30:58;;;;;;;;;11.25;11.00;;;;;8.09;64.66;98154.00;5017261;28;45440;-76
2023/01/17 11:33:45;;;;;;;;;13.00;11.00;;;;;8.03;64.71;98145.63;5017216;28;45487;-76
2023/01/17 11:36:18;;;;;;;;;12.00;12.00;;;;;8.05;64.69;98149.03;4999731;28;45289;-75
2023/01/17 11:39:03;;;;;;;;;16.75;15.00;;;;;8.08;64.33;98151.47;5017161;28;45586;-77
2023/01/17 11:41:35;;;;;;;;;11.00;11.00;;;;;8.02;64.54;98147.44;5017399;28;46220;-75
2023/01/17 11:44:02;;;;;;;;;17.50;12.75;;;;;8.08;64.46;98159.47;5011041;28;45234;-74
2023/01/17 11:46:28;;;;;;;;;15.50;12.25;;;;;8.07;64.66;98155.94;5013740;28;45491;-76
2023/01/17 11:49:00;;;;;;;;;13.25;13.25;;;;;8.04;64.57;98155.31;5017222;28;45278;-75
2023/01/17 11:51:32;;;;;;;;;9.75;8.00;;;;;8.00;64.23;98149.38;4998882;28;46207;-75
2023/01/17 11:54:16;;;;;;;;;14.50;14.50;;;;;7.99;64.74;98156.50;5015776;28;45851;-75
2023/01/17 11:56:45;;;;;;;;;14.75;13.25;;;;;7.96;64.47;98150.56;5017232;28;45285;-74
2023/01/17 11:59:36;;;;;;;;;16.50;15.25;;;;;7.95;64.79;98149.72;5016339;28;45999;-74
2023/01/17 12:02:32;;;;;;;;;15.50;14.50;;;;;7.93;64.83;98137.47;5016910;28;45397;-76
2023/01/17 12:05:16;;;;;;;;;18.25;16.00;;;;;7.90;64.50;98135.91;5017077;28;45444;-76
2023/01/17 12:08:04;;;;;;;;;16.50;14.25;;;;;7.88;65.26;98127.16;5016588;28;45352;-74
2023/01/17 12:10:40;;;;;;;;;6.00;5.00;;;;;7.88;65.09;98131.66;4987834;28;45455;-75
2023/01/17 12:16:27;;;;;;;;;26.50;17.25;;;;;7.84;65.40;98116.81;5016476;28;45413;-76
2023/01/17 12:19:10;;;;;;;;;15.25;15.25;;;;;7.87;64.89;98116.59;5016532;28;45551;-75
2023/01/17 12:21:59;;;;;;;;;14.00;12.50;;;;;7.72;64.84;98083.13;5016464;28;45353;-74
2023/01/17 12:24:33;;;;;;;;;14.25;12.00;;;;;7.95;65.18;98122.19;5014508;28;48023;-75
2023/01/17 12:27:04;;;;;;;;;9.75;7.75;;;;;7.95;65.02;98119.53;5016220;28;45468;-74
2023/01/17 12:29:48;;;;;;;;;14.00;14.00;;;;;7.95;65.09;98117.72;5016598;28;45355;-74
2023/01/17 12:32:32;;;;;;;;;13.00;11.50;;;;;7.98;65.03;98122.81;5016405;28;45574;-76
2023/01/17 12:35:06;;;;;;;;;18.25;12.50;;;;;7.94;65.18;98110.69;5015943;28;46017;-77
2023/01/17 12:37:39;;;;;;;;;12.75;11.50;;;;;8.00;64.94;98109.34;5016423;28;45268;-75
2023/01/17 12:40:33;;;;;;;;;12.00;12.00;;;;;8.04;64.68;98120.63;5016276;28;45416;-76
2023/01/17 12:43:11;;;;;;;;;12.25;12.25;;;;;8.02;64.91;98110.09;4998202;28;45556;-75
2023/01/17 12:45:48;;;;;;;;;8.75;6.00;;;;;7.96;64.82;98097.22;5005062;28;45399;-76
2023/01/17 12:48:17;;;;;;;;;12.00;12.00;;;;;8.02;65.22;98118.09;5016431;28;45387;-74
2023/01/17 12:50:46;;;;;;;;;15.75;13.00;;;;;8.01;64.97;98120.88;5016389;28;45382;-75
2023/01/17 12:53:33;;;;;;;;;12.50;12.00;;;;;8.02;64.56;98117.22;5015890;28;45467;-74
2023/01/17 12:56:07;;;;;;;;;12.00;12.00;;;;;8.02;64.45;98109.22;5014614;28;47152;-75
2023/01/17 12:58:39;;;;;;;;;13.50;12.25;;;;;7.98;64.67;98117.50;5015927;28;45234;-74
2023/01/17 13:01:11;;;;;;;;;13.50;12.00;;;;;8.01;64.96;98116.38;5015759;28;45463;-75
2023/01/17 13:03:46;;;;;;;;;16.25;13.00;;;;;8.01;64.32;98111.03;5015794;28;45306;-73
2023/01/17 13:06:26;;;;;;;;;13.00;13.00;;;;;7.95;64.71;98100.84;5015533;28;46116;-75
2023/01/17 13:08:56;;;;;;;;;12.00;12.00;;;;;8.00;64.31;98125.34;5015939;28;45305;-76
2023/01/17 13:11:32;;;;;;;;;13.75;12.00;;;;;7.94;64.38;98115.16;5015875;28;45288;-77
2023/01/17 13:13:58;;;;;;;;;12.25;11.00;;;;;7.92;64.50;98111.75;5015431;28;45416;-74
2023/01/17 13:16:56;;;;;;;;;16.25;12.25;;;;;7.91;64.98;98105.56;5015701;28;46160;-76
2023/01/17 13:19:43;;;;;;;;;13.00;10.25;;;;;7.93;64.82;98119.66;5015542;28;45287;-75
2023/01/17 13:22:16;;;;;;;;;11.75;11.75;;;;;7.95;65.10;98116.88;5015354;28;45391;-75
2023/01/17 13:24:41;;;;;;;;;12.25;11.25;;;;;7.97;64.42;98121.13;4998249;28;45408;-76
2023/01/17 13:27:28;;;;;;;;;13.75;13.75;;;;;8.01;64.62;98121.72;5015357;28;45618;-75
2023/01/17 13:30:18;;;;;;;;;14.25;13.00;;;;;7.89;64.42;98102.19;5015584;28;46099;-74
2023/01/17 13:33:10;;;;;;;;;9.00;9.00;;;;;7.98;64.68;98121.97;5015446;28;45328;-75
2023/01/17 13:35:58;;;;;;;;;15.00;13.00;;;;;7.92;64.08;98117.94;5013950;28;45567;-74
2023/01/17 13:38:53;;;;;;;;;12.50;10.75;;;;;7.94;64.54;98121.34;5014996;28;45350;-75
2023/01/17 13:41:37;;;;;;;;;9.50;9.50;;;;;7.96;64.31;98119.41;5015608;28;45397;-77
2023/01/17 13:44:23;;;;;;;;;15.00;13.75;;;;;7.97;64.44;98120.28;5009083;28;45340;-74
2023/01/17 13:47:17;;;;;;;;;9.00;9.00;;;;;8.00;64.29;98125.34;5013071;28;45345;-74
2023/01/17 13:49:50;;;;;;;;;16.25;12.00;;;;;7.97;64.12;98120.28;4980738;28;46245;-77
2023/01/17 13:52:18;;;;;;;;;12.75;11.25;;;;;7.98;64.86;98122.81;5015164;28;45234;-77
2023/01/17 13:54:52;;;;;;;;;13.50;11.75;;;;;7.98;64.23;98119.31;5015231;28;45491;-75
2023/01/17 13:57:24;;;;;;;;;14.00;11.75;;;;;7.98;64.40;98124.66;5015234;28;45376;-75
2023/01/17 13:59:51;;;;;;;;;13.75;8.50;;;;;7.84;64.67;98109.69;5014681;28;46223;-77
2023/01/17 14:02:31;;;;;;;;;12.25;11.50;;;;;7.90;64.61;98133.25;5014985;28;45392;-75
2023/01/17 14:05:14;;;;;;;;;13.00;11.25;;;;;7.83;65.17;98123.13;5015318;28;45471;-75
2023/01/17 14:07:53;;;;;;;;;11.50;11.00;;;;;7.77;64.93;98112.94;5014712;28;45608;-74
2023/01/17 14:10:31;;;;;;;;;14.25;12.75;;;;;7.90;64.87;98138.56;5015095;28;45447;-78
2023/01/17 14:12:57;;;;;;;;;13.75;10.50;;;;;7.88;64.97;98140.50;5013634;28;46044;-75
2023/01/17 14:15:28;;;;;;;;;13.50;12.50;;;;;7.86;64.43;98133.56;5015284;28;45349;-75
2023/01/17 14:17:54;;;;;;;;;12.00;10.25;;;;;7.90;64.03;98146.56;5015223;28;45355;-74
2023/01/17 14:20:37;;;;;;;;;11.25;8.75;;;;;7.85;64.66;98138.06;5014649;28;45329;-75
2023/01/17 14:23:22;;;;;;;;;9.25;9.25;;;;;7.88;64.24;98153.84;5014832;28;45391;-77
2023/01/17 14:25:49;;;;;;;;;12.50;11.50;;;;;7.75;64.76;98137.03;5014808;28;45498;-76
2023/01/17 14:28:28;;;;;;;;;11.50;11.50;;;;;7.80;64.70;98145.56;5014657;28;45708;-76
2023/01/17 14:30:55;;;;;;;;;11.00;11.00;;;;;7.79;64.76;98154.53;5014605;28;46697;-76
2023/01/17 14:33:39;;;;;;;;;12.50;9.75;;;;;7.89;64.55;98165.34;5014500;28;45319;-74
2023/01/17 14:36:13;;;;;;;;;8.25;8.25;;;;;7.91;63.97;98166.09;5014815;28;45308;-76
2023/01/17 14:38:43;;;;;;;;;9.25;8.75;;;;;7.85;64.20;98155.88;4996376;28;47072;-75
2023/01/17 14:41:16;;;;;;;;;14.50;9.50;;;;;7.89;63.55;98174.22;5014503;28;45383;-75
2023/01/17 14:43:42;;;;;;;;;12.50;9.25;;;;;7.86;64.27;98179.78;5014090;28;45285;-74
2023/01/17 14:46:31;;;;;;;;;11.25;9.25;;;;;7.65;64.07;98143.22;5014318;28;45532;-74
2023/01/17 14:49:04;;;;;;;;;12.00;9.50;;;;;7.85;63.98;98183.41;5014337;28;45473;-75
2023/01/17 14:51:33;;;;;;;;;9.75;7.25;;;;;7.82;64.54;98166.78;5014426;28;46607;-76
2023/01/17 14:54:01;;;;;;;;;12.00;9.25;;;;;7.88;64.57;98185.00;5014372;28;45469;-76
2023/01/17 14:56:29;;;;;;;;;6.75;6.75;;;;;7.86;63.97;98186.91;5014454;28;45431;-74
2023/01/17 14:59:15;;;;;;;;;15.75;11.00;;;;;7.84;64.22;98184.34;5013862;28;45513;-75
2023/01/17 15:01:51;;;;;;;;;10.75;7.00;;;;;7.77;64.13;98184.94;4980676;28;47790;-76
2023/01/17 15:04:26;;;;;;;;;13.50;12.00;;;;;7.83;63.99;98195.13;5009604;28;45451;-75
2023/01/17 15:06:54;;;;;;;;;12.25;9.75;;;;;7.68;63.86;98174.97;4996498;28;45390;-75
2023/01/17 15:09:23;;;;;;;;;11.50;11.50;;;;;7.66;63.99;98171.56;5013990;28;45622;-75
2023/01/17 15:11:51;;;;;;;;;8.75;8.75;;;;;7.74;64.15;98195.88;5014056;28;45386;-76
2023/01/17 15:14:27;;;;;;;;;12.75;12.75;;;;;7.80;64.09;98206.91;5014044;28;45286;-75
2023/01/17 15:16:53;;;;;;;;;16.25;9.25;;;;;7.79;64.45;98205.22;5014372;28;45434;-75
2023/01/17 15:19:20;;;;;;;;;13.00;13.00;;;;;7.77;65.01;98214.28;5014123;28;45557;-75
2023/01/17 15:21:50;;;;;;;;;14.25;14.25;;;;;7.70;64.58;98210.38;5013958;28;46256;-74
2023/01/17 15:24:18;;;;;;;;;6.25;6.25;;;;;7.71;64.47;98209.41;5013933;28;45535;-74
2023/01/17 15:26:44;;;;;;;;;12.50;12.00;;;;;7.67;65.04;98218.59;5014084;28;45297;-75
2023/01/17 15:29:30;;;;;;;;;16.50;11.75;;;;;7.66;65.63;98220.41;5013890;28;45355;-75
2023/01/17 15:31:58;;;;;;;;;18.50;14.75;;;;;7.63;65.81;98209.97;5013605;28;46137;-74
2023/01/17 15:34:31;;;;;;;;;11.50;11.50;;;;;7.66;65.83;98227.56;4995955;28;45382;-75
2023/01/17 15:37:00;;;;;;;;;17.75;13.50;;;;;7.58;66.11;98210.31;5013938;28;45281;-77
2023/01/17 15:39:32;;;;;;;;;17.50;13.50;;;;;7.64;66.08;98225.03;5013672;28;45423;-77
2023/01/17 15:42:01;;;;;;;;;12.50;12.50;;;;;7.62;65.70;98226.94;5013636;28;45628;-74
2023/01/17 15:44:29;;;;;;;;;15.25;14.25;;;;;7.53;66.05;98211.63;5013524;28;45345;-75
2023/01/17 15:46:54;;;;;;;;;10.75;10.75;;;;;7.51;65.72;98221.53;5013772;28;45512;-73
2023/01/17 15:49:22;;;;;;;;;14.50;11.00;;;;;7.47;65.43;98215.59;5013657;28;45286;-76
2023/01/17 15:51:52;;;;;;;;;15.75;12.00;;;;;7.48;65.84;98235.13;5013434;28;46384;-76
2023/01/17 15:54:24;;;;;;;;;15.00;15.00;;;;;7.45;65.96;98233.53;4995556;28;45347;-76
2023/01/17 15:57:19;;;;;;;;;11.75;10.50;;;;;7.39;66.61;98227.78;5013959;28;45487;-78
2023/01/17 16:00:06;;;;;;;;;12.00;12.00;;;;;7.35;66.15;98234.28;5015476;28;45180;-77
2023/01/17 16:02:31;;;;;;;;;12.00;11.50;;;;;7.41;66.23;98233.84;5016754;28;46409;-75
2023/01/17 16:05:20;;;;;;;;;9.50;9.00;;;;;7.33;65.37;98239.72;5017264;28;45333;-76
2023/01/17 16:07:46;;;;;;;;;14.50;10.75;;;;;7.26;66.35;98230.47;5016308;28;45403;-75
2023/01/17 16:10:17;;;;;;;;;7.75;7.00;;;;;7.23;65.93;98244.00;5016754;28;45569;-75
2023/01/17 16:12:47;;;;;;;;;10.75;10.25;;;;;7.32;66.86;98253.16;5016658;28;45320;-78
2023/01/17 16:15:13;;;;;;;;;12.50;11.00;;;;;7.27;66.05;98250.84;5016753;28;45516;-78
2023/01/17 16:17:41;;;;;;;;;12.00;11.00;;;;;7.30;66.66;98257.78;5016248;28;45483;-77
2023/01/17 16:20:15;;;;;;;;;11.25;9.50;;;;;7.20;66.06;98247.78;5016899;28;45363;-76
2023/01/17 16:22:42;;;;;;;;;14.00;11.00;;;;;7.30;65.97;98271.94;5016449;28;45377;-77
2023/01/17 16:25:16;;;;;;;;;12.25;11.00;;;;;7.31;65.89;98275.47;5016692;28;45515;-78
2023/01/17 16:27:42;;;;;;;;;11.00;11.00;;;;;7.19;65.90;98251.41;5016524;28;45499;-74
2023/01/17 16:30:16;;;;;;;;;8.00;7.75;;;;;7.18;65.85;98248.84;5016424;28;45325;-74
2023/01/17 16:32:47;;;;;;;;;12.50;10.00;;;;;7.31;66.00;98276.31;5016203;28;47357;-74
2023/01/17 16:35:21;;;;;;;;;14.25;11.75;;;;;7.34;66.07;98286.75;5016042;28;45249;-74
2023/01/17 16:37:50;;;;;;;;;14.25;11.50;;;;;7.35;66.44;98284.94;5016570;28;45455;-75
2023/01/17 16:40:16;;;;;;;;;9.25;9.25;;;;;7.35;65.86;98291.13;4998323;28;46391;-74
2023/01/17 16:42:42;;;;;;;;;12.00;10.50;;;;;7.37;65.49;98291.00;5015891;28;46406;-78
2023/01/17 16:45:09;;;;;;;;;10.25;8.00;;;;;7.31;65.78;98289.66;5004746;28;45503;-73
2023/01/17 16:47:34;;;;;;;;;7.75;7.75;;;;;7.37;65.47;98307.84;5014243;28;45426;-73
2023/01/17 16:50:00;;;;;;;;;8.25;8.25;;;;;7.37;65.68;98307.00;5016209;28;45471;-73
2023/01/17 16:52:25;;;;;;;;;12.00;8.00;;;;;7.31;65.64;98288.78;5015861;28;45548;-73
2023/01/17 16:54:51;;;;;;;;;20.50;12.00;;;;;7.32;64.74;98298.47;5015855;28;45339;-75
2023/01/17 16:57:18;;;;;;;;;13.25;11.50;;;;;7.39;65.06;98302.41;5016135;28;45617;-74
2023/01/17 16:59:45;;;;;;;;;11.50;8.00;;;;;7.40;64.67;98301.47;5012211;28;45924;-74
2023/01/17 17:02:10;;;;;;;;;7.00;7.00;;;;;7.40;65.23;98312.13;5016109;28;45368;-74
2023/01/17 17:04:35;;;;;;;;;11.25;10.25;;;;;7.36;64.61;98308.81;5016170;28;45313;-73
2023/01/17 17:07:01;;;;;;;;;12.50;10.00;;;;;7.18;65.02;98280.81;5015942;28;45433;-75
2023/01/17 17:09:26;;;;;;;;;13.50;11.50;;;;;7.27;65.13;98297.94;5015584;28;45531;-74
2023/01/17 17:11:51;;;;;;;;;11.50;10.50;;;;;7.35;65.23;98312.44;5014356;28;45859;-74
2023/01/17 17:14:17;;;;;;;;;11.75;9.50;;;;;7.42;64.55;98326.16;5014277;28;45452;-75
2023/01/17 17:16:43;;;;;;;;;7.00;7.00;;;;;7.36;64.79;98329.28;5016043;28;45327;-74
2023/01/17 17:19:09;;;;;;;;;8.50;7.75;;;;;7.36;64.93;98326.63;5015748;28;45670;-74
2023/01/17 17:21:36;;;;;;;;;12.50;12.50;;;;;7.39;64.67;98337.94;5015744;28;46157;-74